sensor_id;sensor_type;location;lat;lon;timestamp;temperature;humidity
5842;DHT22;2947;52.276;9.946;2024-03-23T00:52:16;8.20;99.90
5842;DHT22;2947;52.276;9.946;2024-03-23T00:54:42;8.30;99.90
5842;DHT22;2947;52.276;9.946;2024-03-23T00:57:08;8.20;99.90
5842;DHT22;2947;52.276;9.946;2024-03-23T00:59:34;8.40;99.90
5842;DHT22;2947;52.276;9.946;2024-03-23T01:01:59;8.40;99.90
5842;DHT22;2947;52.276;9.946;2024-03-23T01:04:25;8.40;99.90
5842;DHT22;2947;52.276;9.946;2024-03-23T01:06:51;8.10;99.90
5842;DHT22;2947;52.276;9.946;2024-03-23T01:09:17;8.00;99.90
5842;DHT22;2947;52.276;9.946;2024-03-23T01:11:42;7.90;99.90
5842;DHT22;2947;52.276;9.946;2024-03-23T01:14:08;8.20;99.90
5842;DHT22;2947;52.276;9.946;2024-03-23T01:16:34;7.90;99.90
5842;DHT22;2947;52.276;9.946;2024-03-23T01:19:00;7.90;99.90
5842;DHT22;2947;52.276;9.946;2024-03-23T01:21:25;8.00;99.90
5842;DHT22;2947;52.276;9.946;2024-03-23T01:23:51;8.00;99.90
5842;DHT22;2947;52.276;9.946;2024-03-23T01:26:17;8.20;99.90
5842;DHT22;2947;52.276;9.946;2024-03-23T01:28:43;8.00;99.90
5842;DHT22;2947;52.276;9.946;2024-03-23T01:31:09;8.30;99.90
5842;DHT22;2947;52.276;9.946;2024-03-23T01:33:35;8.00;99.90
5842;DHT22;2947;52.276;9.946;2024-03-23T01:36:01;8.00;99.90
5842;DHT22;2947;52.276;9.946;2024-03-23T01:38:26;8.50;99.90
5842;DHT22;2947;52.276;9.946;2024-03-23T01:40:58;8.00;99.90
5842;DHT22;2947;52.276;9.946;2024-03-23T01:43:24;8.10;99.90
5842;DHT22;2947;52.276;9.946;2024-03-23T01:45:50;8.20;99.90
5842;DHT22;2947;52.276;9.946;2024-03-23T01:48:20;8.00;99.90
5842;DHT22;2947;52.276;9.946;2024-03-23T01:50:46;8.00;99.90
5842;DHT22;2947;52.276;9.946;2024-03-23T01:53:14;8.20;99.90
5842;DHT22;2947;52.276;9.946;2024-03-23T01:55:43;9.00;99.90
5842;DHT22;2947;52.276;9.946;2024-03-23T01:58:09;8.60;99.90
5842;DHT22;2947;52.276;9.946;2024-03-23T02:00:34;7.90;99.90
5842;DHT22;2947;52.276;9.946;2024-03-23T02:03:00;7.90;99.90
5842;DHT22;2947;52.276;9.946;2024-03-23T02:05:26;8.50;99.90
5842;DHT22;2947;52.276;9.946;2024-03-23T02:07:51;7.90;99.90
5842;DHT22;2947;52.276;9.946;2024-03-23T02:10:17;7.90;99.90
5842;DHT22;2947;52.276;9.946;2024-03-23T02:12:43;7.90;99.90
5842;DHT22;2947;52.276;9.946;2024-03-23T02:15:09;7.90;99.90
5842;DHT22;2947;52.276;9.946;2024-03-23T02:17:35;7.80;99.90
5842;DHT22;2947;52.276;9.946;2024-03-23T02:20:02;7.80;99.90
5842;DHT22;2947;52.276;9.946;2024-03-23T02:22:39;7.80;99.90
5842;DHT22;2947;52.276;9.946;2024-03-23T02:25:05;7.80;99.90
5842;DHT22;2947;52.276;9.946;2024-03-23T02:27:32;7.80;99.90
5842;DHT22;2947;52.276;9.946;2024-03-23T02:30:00;8.50;99.90
5842;DHT22;2947;52.276;9.946;2024-03-23T02:32:25;7.80;99.90
5842;DHT22;2947;52.276;9.946;2024-03-23T02:34:51;7.70;99.90
5842;DHT22;2947;52.276;9.946;2024-03-23T02:37:17;7.70;99.90
5842;DHT22;2947;52.276;9.946;2024-03-23T02:39:43;7.70;99.90
5842;DHT22;2947;52.276;9.946;2024-03-23T02:42:08;8.40;99.90
5842;DHT22;2947;52.276;9.946;2024-03-23T02:44:34;7.60;99.90
5842;DHT22;2947;52.276;9.946;2024-03-23T02:47:00;8.90;99.90
5842;DHT22;2947;52.276;9.946;2024-03-23T02:49:26;7.60;99.90
5842;DHT22;2947;52.276;9.946;2024-03-23T02:51:52;7.60;99.90
5842;DHT22;2947;52.276;9.946;2024-03-23T02:54:20;7.60;99.90
5842;DHT22;2947;52.276;9.946;2024-03-23T02:56:46;7.60;99.90
5842;DHT22;2947;52.276;9.946;2024-03-23T02:59:12;7.80;99.90
5842;DHT22;2947;52.276;9.946;2024-03-23T03:01:37;7.70;99.90
5842;DHT22;2947;52.276;9.946;2024-03-23T03:04:03;8.70;99.90
5842;DHT22;2947;52.276;9.946;2024-03-23T03:06:30;7.70;99.90
5842;DHT22;2947;52.276;9.946;2024-03-23T03:08:57;7.70;99.90
5842;DHT22;2947;52.276;9.946;2024-03-23T03:11:23;7.70;99.90
5842;DHT22;2947;52.276;9.946;2024-03-23T03:13:49;7.90;99.90
5842;DHT22;2947;52.276;9.946;2024-03-23T03:16:14;7.70;99.90
5842;DHT22;2947;52.276;9.946;2024-03-23T03:18:40;7.70;99.90
5842;DHT22;2947;52.276;9.946;2024-03-23T03:21:06;7.70;99.90
5842;DHT22;2947;52.276;9.946;2024-03-23T03:23:37;7.80;99.90
5842;DHT22;2947;52.276;9.946;2024-03-23T03:26:04;7.80;99.90
5842;DHT22;2947;52.276;9.946;2024-03-23T03:28:31;7.70;99.90
5842;DHT22;2947;52.276;9.946;2024-03-23T03:30:58;7.70;99.90
5842;DHT22;2947;52.276;9.946;2024-03-23T03:33:25;7.70;99.90
5842;DHT22;2947;52.276;9.946;2024-03-23T03:35:52;7.70;99.90
5842;DHT22;2947;52.276;9.946;2024-03-23T03:38:19;7.80;99.90
5842;DHT22;2947;52.276;9.946;2024-03-23T03:40:45;7.80;99.90
5842;DHT22;2947;52.276;9.946;2024-03-23T03:43:10;7.70;99.90
5842;DHT22;2947;52.276;9.946;2024-03-23T03:45:36;7.70;99.90
5842;DHT22;2947;52.276;9.946;2024-03-23T03:48:02;8.00;99.90
5842;DHT22;2947;52.276;9.946;2024-03-23T03:50:28;7.60;99.90
5842;DHT22;2947;52.276;9.946;2024-03-23T03:52:54;7.60;99.90
5842;DHT22;2947;52.276;9.946;2024-03-23T03:55:20;8.90;99.90
5842;DHT22;2947;52.276;9.946;2024-03-23T03:57:45;7.60;99.90
5842;DHT22;2947;52.276;9.946;2024-03-23T04:00:11;7.60;99.90
5842;DHT22;2947;52.276;9.946;2024-03-23T04:02:38;7.60;99.90
5842;DHT22;2947;52.276;9.946;2024-03-23T04:05:04;7.60;99.90
5842;DHT22;2947;52.276;9.946;2024-03-23T04:07:31;8.40;99.90
5842;DHT22;2947;52.276;9.946;2024-03-23T04:09:57;8.40;99.90
5842;DHT22;2947;52.276;9.946;2024-03-23T04:12:23;7.60;99.90
5842;DHT22;2947;52.276;9.946;2024-03-23T04:14:49;7.60;99.90
5842;DHT22;2947;52.276;9.946;2024-03-23T04:17:15;7.60;99.90
5842;DHT22;2947;52.276;9.946;2024-03-23T04:19:41;6.60;99.90
5842;DHT22;2947;52.276;9.946;2024-03-23T04:22:08;7.60;99.90
5842;DHT22;2947;52.276;9.946;2024-03-23T04:24:34;8.00;99.90
5842;DHT22;2947;52.276;9.946;2024-03-23T04:27:00;7.50;99.90
5842;DHT22;2947;52.276;9.946;2024-03-23T04:29:25;7.90;99.90
5842;DHT22;2947;52.276;9.946;2024-03-23T04:31:52;7.50;99.90
5842;DHT22;2947;52.276;9.946;2024-03-23T04:34:21;7.50;99.90
5842;DHT22;2947;52.276;9.946;2024-03-23T04:36:48;7.50;99.90
5842;DHT22;2947;52.276;9.946;2024-03-23T04:39:14;7.50;99.90
5842;DHT22;2947;52.276;9.946;2024-03-23T04:41:40;8.20;99.90
5842;DHT22;2947;52.276;9.946;2024-03-23T04:44:06;7.40;99.90
5842;DHT22;2947;52.276;9.946;2024-03-23T04:46:31;7.80;99.90
5842;DHT22;2947;52.276;9.946;2024-03-23T04:48:57;7.60;99.90
5842;DHT22;2947;52.276;9.946;2024-03-23T04:51:23;7.30;99.90
5842;DHT22;2947;52.276;9.946;2024-03-23T04:53:49;7.30;99.90
5842;DHT22;2947;52.276;9.946;2024-03-23T04:56:17;6.80;99.90
5842;DHT22;2947;52.276;9.946;2024-03-23T04:58:44;7.70;99.90
5842;DHT22;2947;52.276;9.946;2024-03-23T05:01:10;7.20;99.90
5842;DHT22;2947;52.276;9.946;2024-03-23T05:03:36;7.70;99.90
5842;DHT22;2947;52.276;9.946;2024-03-23T05:06:02;7.60;99.90
5842;DHT22;2947;52.276;9.946;2024-03-23T05:08:28;7.00;99.90
5842;DHT22;2947;52.276;9.946;2024-03-23T05:10:55;7.00;99.90
5842;DHT22;2947;52.276;9.946;2024-03-23T05:13:23;7.10;99.90
5842;DHT22;2947;52.276;9.946;2024-03-23T05:15:55;7.20;99.90
5842;DHT22;2947;52.276;9.946;2024-03-23T05:18:21;7.40;99.90
5842;DHT22;2947;52.276;9.946;2024-03-23T05:20:47;7.20;99.90
5842;DHT22;2947;52.276;9.946;2024-03-23T05:23:13;7.90;99.90
5842;DHT22;2947;52.276;9.946;2024-03-23T05:25:39;7.20;99.90
5842;DHT22;2947;52.276;9.946;2024-03-23T05:28:05;7.30;99.90
5842;DHT22;2947;52.276;9.946;2024-03-23T05:30:32;7.30;99.90
5842;DHT22;2947;52.276;9.946;2024-03-23T05:32:57;7.20;99.90
5842;DHT22;2947;52.276;9.946;2024-03-23T05:35:23;7.40;99.90
5842;DHT22;2947;52.276;9.946;2024-03-23T05:37:49;7.00;99.90
5842;DHT22;2947;52.276;9.946;2024-03-23T05:40:15;6.90;99.90
5842;DHT22;2947;52.276;9.946;2024-03-23T05:42:41;6.70;99.90
5842;DHT22;2947;52.276;9.946;2024-03-23T05:45:07;6.50;99.90
5842;DHT22;2947;52.276;9.946;2024-03-23T05:47:33;6.40;99.90
5842;DHT22;2947;52.276;9.946;2024-03-23T05:49:59;6.40;99.90
5842;DHT22;2947;52.276;9.946;2024-03-23T05:52:25;6.40;99.90
5842;DHT22;2947;52.276;9.946;2024-03-23T05:54:52;6.40;99.90
5842;DHT22;2947;52.276;9.946;2024-03-23T05:57:18;6.20;99.90
5842;DHT22;2947;52.276;9.946;2024-03-23T05:59:44;6.50;99.90
5842;DHT22;2947;52.276;9.946;2024-03-23T06:02:10;6.70;99.90
5842;DHT22;2947;52.276;9.946;2024-03-23T06:04:36;6.80;99.90
5842;DHT22;2947;52.276;9.946;2024-03-23T06:07:03;6.30;99.90
5842;DHT22;2947;52.276;9.946;2024-03-23T06:09:31;6.40;99.90
5842;DHT22;2947;52.276;9.946;2024-03-23T06:11:57;6.60;99.90
5842;DHT22;2947;52.276;9.946;2024-03-23T06:14:23;6.60;99.90
5842;DHT22;2947;52.276;9.946;2024-03-23T06:16:49;7.20;99.90
5842;DHT22;2947;52.276;9.946;2024-03-23T06:19:15;6.50;99.90
5842;DHT22;2947;52.276;9.946;2024-03-23T06:21:44;6.50;99.90
5842;DHT22;2947;52.276;9.946;2024-03-23T06:24:11;7.60;99.90
5842;DHT22;2947;52.276;9.946;2024-03-23T06:26:37;6.60;99.90
5842;DHT22;2947;52.276;9.946;2024-03-23T06:29:03;7.30;99.90
5842;DHT22;2947;52.276;9.946;2024-03-23T06:31:31;6.70;99.90
5842;DHT22;2947;52.276;9.946;2024-03-23T06:33:57;6.70;99.90
5842;DHT22;2947;52.276;9.946;2024-03-23T06:36:23;6.80;99.90
5842;DHT22;2947;52.276;9.946;2024-03-23T06:38:48;6.90;99.90
5842;DHT22;2947;52.276;9.946;2024-03-23T06:41:15;7.70;99.90
5842;DHT22;2947;52.276;9.946;2024-03-23T06:43:40;6.70;99.90
5842;DHT22;2947;52.276;9.946;2024-03-23T06:46:06;6.70;99.90
5842;DHT22;2947;52.276;9.946;2024-03-23T06:48:32;6.90;99.90
5842;DHT22;2947;52.276;9.946;2024-03-23T06:50:58;6.70;99.90
5842;DHT22;2947;52.276;9.946;2024-03-23T06:53:24;6.70;99.90
5842;DHT22;2947;52.276;9.946;2024-03-23T06:55:51;6.60;99.90
5842;DHT22;2947;52.276;9.946;2024-03-23T06:58:24;6.70;99.90
5842;DHT22;2947;52.276;9.946;2024-03-23T07:00:51;6.60;99.90
5842;DHT22;2947;52.276;9.946;2024-03-23T07:03:17;6.50;99.90
5842;DHT22;2947;52.276;9.946;2024-03-23T07:05:43;7.10;99.90
5842;DHT22;2947;52.276;9.946;2024-03-23T07:08:08;6.50;99.90
5842;DHT22;2947;52.276;9.946;2024-03-23T07:10:34;6.50;99.90
5842;DHT22;2947;52.276;9.946;2024-03-23T07:13:01;6.80;99.90
5842;DHT22;2947;52.276;9.946;2024-03-23T07:15:27;6.50;99.90
5842;DHT22;2947;52.276;9.946;2024-03-23T07:17:52;6.40;99.90
5842;DHT22;2947;52.276;9.946;2024-03-23T07:20:19;6.40;99.90
5842;DHT22;2947;52.276;9.946;2024-03-23T07:22:46;6.50;99.90
5842;DHT22;2947;52.276;9.946;2024-03-23T07:25:13;7.10;99.90
5842;DHT22;2947;52.276;9.946;2024-03-23T07:27:38;6.50;99.90
5842;DHT22;2947;52.276;9.946;2024-03-23T07:30:05;6.50;99.90
5842;DHT22;2947;52.276;9.946;2024-03-23T07:32:31;6.50;99.90
5842;DHT22;2947;52.276;9.946;2024-03-23T07:34:57;7.20;99.90
5842;DHT22;2947;52.276;9.946;2024-03-23T07:37:23;6.60;99.90
5842;DHT22;2947;52.276;9.946;2024-03-23T07:39:49;6.60;99.90
5842;DHT22;2947;52.276;9.946;2024-03-23T07:42:17;6.50;99.90
5842;DHT22;2947;52.276;9.946;2024-03-23T07:44:43;6.60;99.90
5842;DHT22;2947;52.276;9.946;2024-03-23T07:47:08;7.40;99.90
5842;DHT22;2947;52.276;9.946;2024-03-23T07:49:34;6.70;99.90
5842;DHT22;2947;52.276;9.946;2024-03-23T07:52:00;6.70;99.90
5842;DHT22;2947;52.276;9.946;2024-03-23T07:54:25;6.80;99.90
5842;DHT22;2947;52.276;9.946;2024-03-23T07:56:51;7.90;99.90
5842;DHT22;2947;52.276;9.946;2024-03-23T07:59:17;6.70;99.90
5842;DHT22;2947;52.276;9.946;2024-03-23T08:01:44;6.80;99.90
5842;DHT22;2947;52.276;9.946;2024-03-23T08:04:10;6.80;99.90
5842;DHT22;2947;52.276;9.946;2024-03-23T08:06:38;6.80;99.90
5842;DHT22;2947;52.276;9.946;2024-03-23T08:09:03;7.10;99.90
5842;DHT22;2947;52.276;9.946;2024-03-23T08:11:30;6.90;99.90
5842;DHT22;2947;52.276;9.946;2024-03-23T08:13:58;6.90;99.90
5842;DHT22;2947;52.276;9.946;2024-03-23T08:16:24;6.90;99.90
5842;DHT22;2947;52.276;9.946;2024-03-23T08:18:54;8.00;99.90
5842;DHT22;2947;52.276;9.946;2024-03-23T08:21:22;6.90;99.90
5842;DHT22;2947;52.276;9.946;2024-03-23T08:23:48;6.90;99.90
5842;DHT22;2947;52.276;9.946;2024-03-23T08:26:15;6.90;99.90
5842;DHT22;2947;52.276;9.946;2024-03-23T08:28:43;6.90;99.90
5842;DHT22;2947;52.276;9.946;2024-03-23T08:31:10;6.80;99.90
5842;DHT22;2947;52.276;9.946;2024-03-23T08:33:37;6.90;99.90
5842;DHT22;2947;52.276;9.946;2024-03-23T08:36:08;6.90;99.90
5842;DHT22;2947;52.276;9.946;2024-03-23T08:38:35;6.90;99.90
5842;DHT22;2947;52.276;9.946;2024-03-23T08:41:07;7.00;99.90
5842;DHT22;2947;52.276;9.946;2024-03-23T08:43:41;7.00;99.90
5842;DHT22;2947;52.276;9.946;2024-03-23T08:46:12;7.10;99.90
5842;DHT22;2947;52.276;9.946;2024-03-23T08:48:43;7.20;99.90
5842;DHT22;2947;52.276;9.946;2024-03-23T08:51:15;7.30;99.90
5842;DHT22;2947;52.276;9.946;2024-03-23T08:53:42;7.40;99.90
5842;DHT22;2947;52.276;9.946;2024-03-23T08:56:09;6.50;99.90
5842;DHT22;2947;52.276;9.946;2024-03-23T08:58:37;9.00;99.90
5842;DHT22;2947;52.276;9.946;2024-03-23T09:01:07;7.60;99.90
5842;DHT22;2947;52.276;9.946;2024-03-23T09:03:35;8.00;99.90
5842;DHT22;2947;52.276;9.946;2024-03-23T09:06:09;7.70;99.90
5842;DHT22;2947;52.276;9.946;2024-03-23T09:08:36;7.90;99.90
5842;DHT22;2947;52.276;9.946;2024-03-23T09:11:06;8.00;99.90
5842;DHT22;2947;52.276;9.946;2024-03-23T09:13:33;8.00;99.90
5842;DHT22;2947;52.276;9.946;2024-03-23T09:15:59;8.10;99.90
5842;DHT22;2947;52.276;9.946;2024-03-23T09:18:25;8.20;99.90
5842;DHT22;2947;52.276;9.946;2024-03-23T09:20:51;8.30;99.90
5842;DHT22;2947;52.276;9.946;2024-03-23T09:23:20;8.30;99.90
5842;DHT22;2947;52.276;9.946;2024-03-23T09:25:46;9.10;99.90
5842;DHT22;2947;52.276;9.946;2024-03-23T09:28:12;8.30;18.40
5842;DHT22;2947;52.276;9.946;2024-03-23T09:30:37;8.40;38.30
5842;DHT22;2947;52.276;9.946;2024-03-23T09:33:12;8.20;53.10
5842;DHT22;2947;52.276;9.946;2024-03-23T09:35:42;8.30;99.90
5842;DHT22;2947;52.276;9.946;2024-03-23T09:38:10;9.40;99.90
5842;DHT22;2947;52.276;9.946;2024-03-23T09:40:42;8.50;99.90
5842;DHT22;2947;52.276;9.946;2024-03-23T09:43:09;8.60;99.90
5842;DHT22;2947;52.276;9.946;2024-03-23T09:45:38;8.70;74.00
5842;DHT22;2947;52.276;9.946;2024-03-23T09:48:08;8.90;1.00
5842;DHT22;2947;52.276;9.946;2024-03-23T09:50:39;9.00;20.20
5842;DHT22;2947;52.276;9.946;2024-03-23T09:53:10;9.20;1.00
5842;DHT22;2947;52.276;9.946;2024-03-23T09:55:38;9.60;1.00
5842;DHT22;2947;52.276;9.946;2024-03-23T09:58:04;9.50;1.00
5842;DHT22;2947;52.276;9.946;2024-03-23T10:00:32;9.50;1.00
5842;DHT22;2947;52.276;9.946;2024-03-23T10:02:59;9.60;25.30
5842;DHT22;2947;52.276;9.946;2024-03-23T10:05:29;9.50;1.00
5842;DHT22;2947;52.276;9.946;2024-03-23T10:07:58;9.70;1.00
5842;DHT22;2947;52.276;9.946;2024-03-23T10:10:25;9.70;23.50
5842;DHT22;2947;52.276;9.946;2024-03-23T10:12:51;9.70;99.90
5842;DHT22;2947;52.276;9.946;2024-03-23T10:15:26;9.80;99.90
5842;DHT22;2947;52.276;9.946;2024-03-23T10:17:52;10.00;1.00
5842;DHT22;2947;52.276;9.946;2024-03-23T10:20:23;10.10;99.90
5842;DHT22;2947;52.276;9.946;2024-03-23T10:22:50;10.30;99.90
5842;DHT22;2947;52.276;9.946;2024-03-23T10:25:25;10.40;92.70
5842;DHT22;2947;52.276;9.946;2024-03-23T10:27:59;10.40;1.00
5842;DHT22;2947;52.276;9.946;2024-03-23T10:30:29;10.40;1.00
5842;DHT22;2947;52.276;9.946;2024-03-23T10:33:11;10.40;1.00
5842;DHT22;2947;52.276;9.946;2024-03-23T10:35:37;10.20;1.00
5842;DHT22;2947;52.276;9.946;2024-03-23T10:38:05;10.20;1.00
5842;DHT22;2947;52.276;9.946;2024-03-23T10:40:34;10.20;1.00
5842;DHT22;2947;52.276;9.946;2024-03-23T10:43:05;10.30;1.00
5842;DHT22;2947;52.276;9.946;2024-03-23T10:45:32;10.30;1.00
5842;DHT22;2947;52.276;9.946;2024-03-23T10:47:57;11.30;1.00
5842;DHT22;2947;52.276;9.946;2024-03-23T10:50:23;10.50;99.90
5842;DHT22;2947;52.276;9.946;2024-03-23T10:52:52;10.70;1.00
5842;DHT22;2947;52.276;9.946;2024-03-23T10:55:22;10.60;99.90
5842;DHT22;2947;52.276;9.946;2024-03-23T10:57:54;10.70;99.90
5842;DHT22;2947;52.276;9.946;2024-03-23T11:00:21;10.80;99.90
5842;DHT22;2947;52.276;9.946;2024-03-23T11:02:49;10.90;99.90
5842;DHT22;2947;52.276;9.946;2024-03-23T11:05:29;10.90;99.90
5842;DHT22;2947;52.276;9.946;2024-03-23T11:07:56;10.70;99.90
5842;DHT22;2947;52.276;9.946;2024-03-23T11:10:29;10.60;99.90
5842;DHT22;2947;52.276;9.946;2024-03-23T11:12:58;10.90;99.90
5842;DHT22;2947;52.276;9.946;2024-03-23T11:15:24;10.50;1.00
5842;DHT22;2947;52.276;9.946;2024-03-23T11:18:07;10.40;1.00
5842;DHT22;2947;52.276;9.946;2024-03-23T11:20:37;10.40;1.00
5842;DHT22;2947;52.276;9.946;2024-03-23T11:23:04;10.30;1.00
5842;DHT22;2947;52.276;9.946;2024-03-23T11:25:30;10.10;1.00
5842;DHT22;2947;52.276;9.946;2024-03-23T11:28:12;10.10;99.90
5842;DHT22;2947;52.276;9.946;2024-03-23T11:30:38;10.20;99.90
5842;DHT22;2947;52.276;9.946;2024-03-23T11:33:04;10.00;99.90
5842;DHT22;2947;52.276;9.946;2024-03-23T11:35:31;9.90;99.90
5842;DHT22;2947;52.276;9.946;2024-03-23T11:38:18;9.80;1.00
5842;DHT22;2947;52.276;9.946;2024-03-23T11:40:49;9.50;99.90
5842;DHT22;2947;52.276;9.946;2024-03-23T11:43:18;9.20;1.00
5842;DHT22;2947;52.276;9.946;2024-03-23T11:45:52;8.90;1.00
5842;DHT22;2947;52.276;9.946;2024-03-23T11:48:20;8.80;1.00
5842;DHT22;2947;52.276;9.946;2024-03-23T11:50:48;8.70;1.00
5842;DHT22;2947;52.276;9.946;2024-03-23T11:53:24;8.70;99.90
5842;DHT22;2947;52.276;9.946;2024-03-23T11:55:58;8.90;1.00
5842;DHT22;2947;52.276;9.946;2024-03-23T11:58:26;9.00;1.00
5842;DHT22;2947;52.276;9.946;2024-03-23T12:01:00;9.00;99.90
5842;DHT22;2947;52.276;9.946;2024-03-23T12:03:31;9.10;1.00
5842;DHT22;2947;52.276;9.946;2024-03-23T12:06:03;9.10;99.90
5842;DHT22;2947;52.276;9.946;2024-03-23T12:08:32;9.20;99.90
5842;DHT22;2947;52.276;9.946;2024-03-23T12:11:11;9.00;1.00
5842;DHT22;2947;52.276;9.946;2024-03-23T12:13:39;8.90;1.00
5842;DHT22;2947;52.276;9.946;2024-03-23T12:16:21;9.00;99.90
5842;DHT22;2947;52.276;9.946;2024-03-23T12:18:52;8.80;99.90
5842;DHT22;2947;52.276;9.946;2024-03-23T12:21:17;8.60;1.00
5842;DHT22;2947;52.276;9.946;2024-03-23T12:23:44;8.70;99.90
5842;DHT22;2947;52.276;9.946;2024-03-23T12:26:14;8.80;99.90
5842;DHT22;2947;52.276;9.946;2024-03-23T12:28:41;8.40;1.00
5842;DHT22;2947;52.276;9.946;2024-03-23T12:31:06;8.20;99.90
5842;DHT22;2947;52.276;9.946;2024-03-23T12:33:32;8.20;99.90
5842;DHT22;2947;52.276;9.946;2024-03-23T12:35:58;8.50;99.90
5842;DHT22;2947;52.276;9.946;2024-03-23T12:38:24;8.20;93.90
5842;DHT22;2947;52.276;9.946;2024-03-23T12:40:51;8.10;1.00
5842;DHT22;2947;52.276;9.946;2024-03-23T12:43:17;8.10;9.70
5842;DHT22;2947;52.276;9.946;2024-03-23T12:45:51;8.00;1.00
5842;DHT22;2947;52.276;9.946;2024-03-23T12:48:17;8.10;1.00
5842;DHT22;2947;52.276;9.946;2024-03-23T12:50:42;8.60;99.90
5842;DHT22;2947;52.276;9.946;2024-03-23T12:53:08;8.20;99.90
5842;DHT22;2947;52.276;9.946;2024-03-23T12:55:37;8.30;23.60
5842;DHT22;2947;52.276;9.946;2024-03-23T12:58:03;8.30;1.00
5842;DHT22;2947;52.276;9.946;2024-03-23T13:00:30;8.30;1.00
5842;DHT22;2947;52.276;9.946;2024-03-23T13:02:55;8.70;99.90
5842;DHT22;2947;52.276;9.946;2024-03-23T13:05:22;8.10;1.00
5842;DHT22;2947;52.276;9.946;2024-03-23T13:07:47;8.10;1.00
5842;DHT22;2947;52.276;9.946;2024-03-23T13:10:13;8.00;99.90
5842;DHT22;2947;52.276;9.946;2024-03-23T13:12:40;7.70;99.90
5842;DHT22;2947;52.276;9.946;2024-03-23T13:15:06;7.40;1.00
5842;DHT22;2947;52.276;9.946;2024-03-23T13:17:32;7.30;99.90
5842;DHT22;2947;52.276;9.946;2024-03-23T13:19:58;7.30;99.90
5842;DHT22;2947;52.276;9.946;2024-03-23T13:22:23;7.30;1.00
5842;DHT22;2947;52.276;9.946;2024-03-23T13:24:49;7.30;77.20
5842;DHT22;2947;52.276;9.946;2024-03-23T13:27:17;7.40;50.00
5842;DHT22;2947;52.276;9.946;2024-03-23T13:29:42;7.90;1.00
5842;DHT22;2947;52.276;9.946;2024-03-23T13:32:08;7.80;99.90
5842;DHT22;2947;52.276;9.946;2024-03-23T13:34:34;8.70;99.90
5842;DHT22;2947;52.276;9.946;2024-03-23T13:37:00;7.90;1.00
5842;DHT22;2947;52.276;9.946;2024-03-23T13:39:26;7.90;99.90
5842;DHT22;2947;52.276;9.946;2024-03-23T13:41:55;7.90;1.00
5842;DHT22;2947;52.276;9.946;2024-03-23T13:44:23;9.10;99.90
5842;DHT22;2947;52.276;9.946;2024-03-23T13:46:49;8.80;1.00
5842;DHT22;2947;52.276;9.946;2024-03-23T13:49:30;8.00;1.00
5842;DHT22;2947;52.276;9.946;2024-03-23T13:51:58;8.10;99.90
5842;DHT22;2947;52.276;9.946;2024-03-23T13:54:25;8.20;1.00
5842;DHT22;2947;52.276;9.946;2024-03-23T13:56:53;8.20;99.90
5842;DHT22;2947;52.276;9.946;2024-03-23T13:59:20;8.30;99.90
5842;DHT22;2947;52.276;9.946;2024-03-23T14:01:46;8.40;12.20
5842;DHT22;2947;52.276;9.946;2024-03-23T14:04:13;8.60;1.00
5842;DHT22;2947;52.276;9.946;2024-03-23T14:06:39;8.30;1.00
5842;DHT22;2947;52.276;9.946;2024-03-23T14:09:06;8.20;99.90
5842;DHT22;2947;52.276;9.946;2024-03-23T14:11:35;8.10;1.00
5842;DHT22;2947;52.276;9.946;2024-03-23T14:14:03;8.30;99.90
5842;DHT22;2947;52.276;9.946;2024-03-23T14:16:30;7.30;66.50
5842;DHT22;2947;52.276;9.946;2024-03-23T14:18:57;8.10;94.70
5842;DHT22;2947;52.276;9.946;2024-03-23T14:21:23;9.10;1.00
5842;DHT22;2947;52.276;9.946;2024-03-23T14:23:49;8.00;1.00
5842;DHT22;2947;52.276;9.946;2024-03-23T14:26:17;8.00;1.00
5842;DHT22;2947;52.276;9.946;2024-03-23T14:28:42;8.20;1.00
5842;DHT22;2947;52.276;9.946;2024-03-23T14:31:08;9.30;1.00
5842;DHT22;2947;52.276;9.946;2024-03-23T14:33:39;8.60;99.90
5842;DHT22;2947;52.276;9.946;2024-03-23T14:36:15;7.90;1.00
5842;DHT22;2947;52.276;9.946;2024-03-23T14:38:48;7.90;1.00
5842;DHT22;2947;52.276;9.946;2024-03-23T14:41:14;7.70;1.00
5842;DHT22;2947;52.276;9.946;2024-03-23T14:43:40;8.70;99.90
5842;DHT22;2947;52.276;9.946;2024-03-23T14:46:15;7.60;99.90
5842;DHT22;2947;52.276;9.946;2024-03-23T14:48:43;7.30;1.00
5842;DHT22;2947;52.276;9.946;2024-03-23T14:51:10;8.00;1.00
5842;DHT22;2947;52.276;9.946;2024-03-23T14:53:45;6.40;1.00
5842;DHT22;2947;52.276;9.946;2024-03-23T14:56:12;5.90;99.90
5842;DHT22;2947;52.276;9.946;2024-03-23T14:58:40;6.00;99.90
5842;DHT22;2947;52.276;9.946;2024-03-23T15:01:08;5.90;99.90
5842;DHT22;2947;52.276;9.946;2024-03-23T15:03:38;6.90;1.00
5842;DHT22;2947;52.276;9.946;2024-03-23T15:06:08;5.90;99.90
5842;DHT22;2947;52.276;9.946;2024-03-23T15:08:37;5.90;99.90
5842;DHT22;2947;52.276;9.946;2024-03-23T15:11:03;6.00;99.90
5842;DHT22;2947;52.276;9.946;2024-03-23T15:13:33;6.10;99.90
5842;DHT22;2947;52.276;9.946;2024-03-23T15:16:00;6.60;37.10
5842;DHT22;2947;52.276;9.946;2024-03-23T15:18:25;6.30;99.90
5842;DHT22;2947;52.276;9.946;2024-03-23T15:20:56;6.50;99.90
5842;DHT22;2947;52.276;9.946;2024-03-23T15:23:23;7.70;1.00
5842;DHT22;2947;52.276;9.946;2024-03-23T15:26:00;6.80;99.90
5842;DHT22;2947;52.276;9.946;2024-03-23T15:28:27;6.90;1.00
5842;DHT22;2947;52.276;9.946;2024-03-23T15:31:08;7.00;95.90
5842;DHT22;2947;52.276;9.946;2024-03-23T15:33:37;7.10;99.90
5842;DHT22;2947;52.276;9.946;2024-03-23T15:36:05;7.40;99.90
5842;DHT22;2947;52.276;9.946;2024-03-23T15:38:32;7.20;99.90
5842;DHT22;2947;52.276;9.946;2024-03-23T15:40:58;7.30;31.70
5842;DHT22;2947;52.276;9.946;2024-03-23T15:43:24;7.40;1.00
5842;DHT22;2947;52.276;9.946;2024-03-23T15:45:55;8.10;1.00
5842;DHT22;2947;52.276;9.946;2024-03-23T15:48:31;7.40;1.00
5842;DHT22;2947;52.276;9.946;2024-03-23T15:50:59;7.30;5.70
5842;DHT22;2947;52.276;9.946;2024-03-23T15:53:26;7.30;1.00
5842;DHT22;2947;52.276;9.946;2024-03-23T15:55:55;7.90;99.90
5842;DHT22;2947;52.276;9.946;2024-03-23T15:58:22;7.30;1.00
5842;DHT22;2947;52.276;9.946;2024-03-23T16:01:06;7.20;1.00
5842;DHT22;2947;52.276;9.946;2024-03-23T16:03:36;7.10;34.60
5842;DHT22;2947;52.276;9.946;2024-03-23T16:06:04;7.00;99.90
5842;DHT22;2947;52.276;9.946;2024-03-23T16:08:32;7.00;99.90
5842;DHT22;2947;52.276;9.946;2024-03-23T16:11:03;7.40;99.90
5842;DHT22;2947;52.276;9.946;2024-03-23T16:13:31;6.40;99.90
5842;DHT22;2947;52.276;9.946;2024-03-23T16:15:58;6.00;1.00
5842;DHT22;2947;52.276;9.946;2024-03-23T16:18:33;5.90;1.00
5842;DHT22;2947;52.276;9.946;2024-03-23T16:21:01;5.80;44.50
5842;DHT22;2947;52.276;9.946;2024-03-23T16:23:28;5.70;87.10
5842;DHT22;2947;52.276;9.946;2024-03-23T16:25:55;5.80;99.90
5842;DHT22;2947;52.276;9.946;2024-03-23T16:28:35;5.80;99.90
5842;DHT22;2947;52.276;9.946;2024-03-23T16:31:05;5.80;99.90
5842;DHT22;2947;52.276;9.946;2024-03-23T16:33:32;5.90;70.30
5842;DHT22;2947;52.276;9.946;2024-03-23T16:36:08;6.00;50.20
5842;DHT22;2947;52.276;9.946;2024-03-23T16:38:36;6.10;44.40
5842;DHT22;2947;52.276;9.946;2024-03-23T16:41:04;6.10;1.00
5842;DHT22;2947;52.276;9.946;2024-03-23T16:43:32;6.10;20.20
5842;DHT22;2947;52.276;9.946;2024-03-23T16:48:29;6.10;1.00
5842;DHT22;2947;52.276;9.946;2024-03-23T16:51:02;7.10;1.00
5842;DHT22;2947;52.276;9.946;2024-03-23T16:53:30;6.20;1.00
5842;DHT22;2947;52.276;9.946;2024-03-23T16:56:03;6.20;1.00
5842;DHT22;2947;52.276;9.946;2024-03-23T16:58:32;6.20;1.00
5842;DHT22;2947;52.276;9.946;2024-03-23T17:01:09;6.20;1.00
5842;DHT22;2947;52.276;9.946;2024-03-23T17:03:46;6.20;1.00
5842;DHT22;2947;52.276;9.946;2024-03-23T17:06:13;6.20;1.00
5842;DHT22;2947;52.276;9.946;2024-03-23T17:08:40;6.20;1.00
5842;DHT22;2947;52.276;9.946;2024-03-23T17:11:06;7.30;1.00
5842;DHT22;2947;52.276;9.946;2024-03-23T17:13:32;6.10;1.00
5842;DHT22;2947;52.276;9.946;2024-03-23T17:15:58;6.70;1.00